Albrightsville, Pennsylvania
Current Conditions -  °F | °C
As of 11:53 AM on Friday 19 Dec 2014 (Local Time) from KMPO Reporting Station
Overcast Overcast  
Wind Chill: 13°   Ceiling: 1700
Heat Index: 26°   Visibility: 10mi
Dew Point: 18°   Wind: 17mph
Humidity: 71%   Direction: 330°NNW
Pressure: 29.98"   Gusts: 24mph
Location:  41°N, 75.53°W
Report Text: KMPO 191653Z AUTO 33015G21KT 10SM OVC017 M03/M08 A2998 RMK AO2 SLP175 T10331078
Loading
Personal Weather Stations






























Interactive Weather Map New forecast layout! Learn more

10-Day Weather Forecast

Advertisements
Track Severe Weather on mobile